createdAt,value
2022-09-23T00:01:11.259Z,101569.63
2022-09-23T00:03:41.450Z,101565.53
2022-09-23T00:06:13.729Z,101559.69
2022-09-23T00:08:41.329Z,101560.47
2022-09-23T00:11:20.804Z,101559.53
2022-09-23T00:13:49.613Z,101555.16
2022-09-23T00:16:25.451Z,101557.88
2022-09-23T00:18:52.432Z,101555.28
2022-09-23T00:21:20.529Z,101553.78
2022-09-23T00:23:47.921Z,101545.34
2022-09-23T00:26:17.023Z,101543.06
2022-09-23T00:28:43.574Z,101543.34
2022-09-23T00:31:12.849Z,101544.28
2022-09-23T00:33:40.666Z,101542.66
2022-09-23T00:36:11.125Z,101536.66
2022-09-23T00:38:38.371Z,101542.66
2022-09-23T00:41:06.396Z,101541.03
2022-09-23T00:43:58.314Z,101538.44
2022-09-23T00:46:38.933Z,101531.91
2022-09-23T00:49:30.080Z,101534.66
2022-09-23T00:51:58.049Z,101531.22
2022-09-23T00:54:27.525Z,101534.09
2022-09-23T00:56:55.477Z,101527.16
2022-09-23T00:59:24.420Z,101527.97
2022-09-23T01:01:54.916Z,101529.75
2022-09-23T01:04:26.065Z,101527.31
2022-09-23T01:06:52.811Z,101529.06
2022-09-23T01:09:20.603Z,101533.44
2022-09-23T01:12:19.569Z,101527.41
2022-09-23T01:15:00.479Z,101521.72
2022-09-23T01:17:32.791Z,101519.25
2022-09-23T01:20:30.626Z,101518.31
2022-09-23T01:23:40.574Z,101519.25
2022-09-23T01:26:25.911Z,101521.06
2022-09-23T01:29:15.179Z,101517.78
2022-09-23T01:31:56.730Z,101518.72
2022-09-23T01:34:32.749Z,101515.63
2022-09-23T01:37:11.706Z,101515.06
2022-09-23T01:39:47.962Z,101508.13
2022-09-23T01:42:39.469Z,101507.31
2022-09-23T01:45:09.714Z,101502.13
2022-09-23T01:47:43.324Z,101502.41
2022-09-23T01:50:36.542Z,101504.97
2022-09-23T01:53:10.892Z,101499.81
2022-09-23T01:55:42.927Z,101498.31
2022-09-23T01:58:21.454Z,101502.53
2022-09-23T02:01:00.053Z,101499.28
2022-09-23T02:03:51.938Z,101496.84
2022-09-23T02:06:26.012Z,101487.59
2022-09-23T02:09:07.133Z,101497.13
2022-09-23T02:11:36.416Z,101486.91
2022-09-23T02:14:15.533Z,101485.09
2022-09-23T02:16:50.466Z,101480.91
2022-09-23T02:19:50.750Z,101480.91
2022-09-23T02:22:26.349Z,101479.41
2022-09-23T02:24:54.760Z,101486.22
2022-09-23T02:27:33.110Z,101480.22
2022-09-23T02:30:02.659Z,101472.59
2022-09-23T02:32:42.101Z,101471.66
2022-09-23T02:35:26.882Z,101476.00
2022-09-23T02:38:19.735Z,101471.91
2022-09-23T02:41:10.459Z,101466.06
2022-09-23T02:44:07.641Z,101466.22
2022-09-23T02:46:35.408Z,101469.91
2022-09-23T02:49:29.524Z,101465.66
2022-09-23T02:51:59.884Z,101468.56
2022-09-23T02:54:29.245Z,101458.31
2022-09-23T02:56:57.378Z,101457.66
2022-09-23T02:59:24.470Z,101462.16
2022-09-23T03:02:00.049Z,101462.56
2022-09-23T03:04:32.350Z,101465.31
2022-09-23T03:07:20.047Z,101461.06
2022-09-23T03:10:07.278Z,101456.16
2022-09-23T03:13:04.849Z,101456.47
2022-09-23T03:15:57.368Z,101446.66
2022-09-23T03:18:37.045Z,101451.16
2022-09-23T03:21:17.254Z,101453.22
2022-09-23T03:23:46.487Z,101452.66
2022-09-23T03:26:20.869Z,101452.13
2022-09-23T03:28:47.705Z,101447.38
2022-09-23T03:31:15.537Z,101447.47
2022-09-23T03:33:47.244Z,101451.03
2022-09-23T03:36:37.570Z,101440.03
2022-09-23T03:39:12.906Z,101441.09
2022-09-23T03:41:51.716Z,101433.59
2022-09-23T03:44:19.692Z,101433.75
2022-09-23T03:46:49.859Z,101427.91
2022-09-23T03:49:21.280Z,101429.00
2022-09-23T03:51:47.841Z,101425.03
2022-09-23T03:54:14.457Z,101430.34
2022-09-23T03:56:40.963Z,101421.91
2022-09-23T03:59:07.621Z,101421.09
2022-09-23T04:01:34.190Z,101417.81
2022-09-23T04:04:00.979Z,101404.91
2022-09-23T04:06:27.447Z,101412.66
2022-09-23T04:08:53.998Z,101400.66
2022-09-23T04:11:20.660Z,101405.84
2022-09-23T04:13:47.162Z,101406.00
2022-09-23T04:16:13.722Z,101404.38
2022-09-23T04:18:40.243Z,101403.56
2022-09-23T04:21:06.759Z,101399.47
2022-09-23T04:23:33.316Z,101404.63
2022-09-23T04:25:59.778Z,101395.25
2022-09-23T04:28:26.482Z,101393.63
2022-09-23T04:30:54.027Z,101391.94
2022-09-23T04:33:20.581Z,101393.84
2022-09-23T04:35:51.767Z,101390.75
2022-09-23T04:38:18.868Z,101395.91
2022-09-23T04:40:45.490Z,101392.63
2022-09-23T04:43:15.776Z,101394.41
2022-09-23T04:45:43.802Z,101396.16
2022-09-23T04:48:11.618Z,101392.09
2022-09-23T04:50:38.525Z,101399.84
2022-09-23T04:53:05.582Z,101396.56
2022-09-23T04:55:32.274Z,101397.50
2022-09-23T04:57:58.862Z,101398.59
2022-09-23T05:00:27.018Z,101401.31
2022-09-23T05:02:53.631Z,101398.88
2022-09-23T05:05:21.177Z,101397.38
2022-09-23T05:07:48.514Z,101393.16
2022-09-23T05:10:16.015Z,101398.63
2022-09-23T05:12:42.801Z,101394.38
2022-09-23T05:15:09.749Z,101402.97
2022-09-23T05:17:37.394Z,101403.06
2022-09-23T05:20:04.999Z,101399.03
2022-09-23T05:22:31.829Z,101406.78
2022-09-23T05:25:00.306Z,101406.06
2022-09-23T05:27:27.256Z,101408.63
2022-09-23T05:29:53.825Z,101403.47
2022-09-23T05:32:21.164Z,101394.13
2022-09-23T05:34:47.850Z,101394.78
2022-09-23T05:37:14.347Z,101391.13
2022-09-23T05:39:41.150Z,101381.63
2022-09-23T05:42:08.032Z,101392.47
2022-09-23T05:44:34.498Z,101394.81
2022-09-23T05:47:01.136Z,101397.13
2022-09-23T05:49:42.859Z,101400.09
2022-09-23T05:52:14.248Z,101394.53
2022-09-23T05:54:41.256Z,101391.41
2022-09-23T05:57:08.037Z,101389.13
2022-09-23T05:59:34.626Z,101389.41
2022-09-23T06:02:01.652Z,101396.31
2022-09-23T06:04:28.276Z,101389.50
2022-09-23T06:06:59.214Z,101386.91
2022-09-23T06:09:29.291Z,101391.91
2022-09-23T06:11:57.433Z,101395.16
2022-09-23T06:14:23.976Z,101385.34
2022-09-23T06:16:50.636Z,101379.56
2022-09-23T06:19:17.378Z,101383.28
2022-09-23T06:21:43.947Z,101381.72
2022-09-23T06:24:14.152Z,101392.13
2022-09-23T06:26:43.445Z,101391.19
2022-09-23T06:29:11.985Z,101382.56
2022-09-23T06:31:42.171Z,101379.19
2022-09-23T06:34:14.158Z,101385.81
2022-09-23T06:36:44.945Z,101390.44
2022-09-23T06:39:13.585Z,101385.69
2022-09-23T06:41:40.266Z,101385.25
2022-09-23T06:44:06.951Z,101389.16
2022-09-23T06:46:33.747Z,101392.94
2022-09-23T06:49:02.135Z,101386.25
2022-09-23T06:51:28.725Z,101387.38
2022-09-23T06:53:56.026Z,101385.44
2022-09-23T06:56:23.684Z,101393.09
2022-09-23T06:58:52.522Z,101398.28
2022-09-23T07:01:19.781Z,101393.09
2022-09-23T07:03:48.307Z,101396.78
2022-09-23T07:06:16.095Z,101388.81
2022-09-23T07:08:45.212Z,101390.31
2022-09-23T07:11:13.299Z,101395.16
2022-09-23T07:13:41.386Z,101400.84
2022-09-23T07:16:09.961Z,101397.59
2022-09-23T07:18:37.631Z,101406.22
2022-09-23T07:21:07.154Z,101398.25
2022-09-23T07:23:34.018Z,101405.88
2022-09-23T07:26:01.295Z,101400.38
2022-09-23T07:28:29.094Z,101407.03
2022-09-23T07:31:00.438Z,101402.97
2022-09-23T07:33:33.068Z,101397.63
2022-09-23T07:36:05.119Z,101392.75
2022-09-23T07:38:32.022Z,101387.38
2022-09-23T07:41:08.137Z,101393.72
2022-09-23T07:43:35.145Z,101396.81
2022-09-23T07:46:05.858Z,101389.16
2022-09-23T07:48:34.670Z,101390.16
2022-09-23T07:51:36.607Z,101392.91
2022-09-23T07:54:07.413Z,101398.91
2022-09-23T07:56:35.930Z,101393.72
2022-09-23T07:59:05.533Z,101391.91
2022-09-23T08:01:41.487Z,101402.31
2022-09-23T08:04:21.067Z,101399.88
2022-09-23T08:06:50.722Z,101405.41
2022-09-23T08:09:21.846Z,101395.28
2022-09-23T08:11:49.509Z,101404.03
2022-09-23T08:14:18.001Z,101398.22
2022-09-23T08:16:47.192Z,101402.75
2022-09-23T08:19:15.048Z,101397.03
2022-09-23T08:21:42.459Z,101398.34
2022-09-23T08:24:13.517Z,101402.06
2022-09-23T08:26:40.245Z,101402.69
2022-09-23T08:29:10.361Z,101405.44
2022-09-23T08:31:37.008Z,101393.53
2022-09-23T08:34:03.634Z,101398.06
2022-09-23T08:36:31.318Z,101399.19
2022-09-23T08:38:58.243Z,101396.69
2022-09-23T08:41:38.896Z,101396.19
2022-09-23T08:44:29.120Z,101393.56
2022-09-23T08:47:16.555Z,101395.47
2022-09-23T08:49:59.156Z,101393.97
2022-09-23T08:52:47.752Z,101387.88
2022-09-23T08:55:15.429Z,101395.66
2022-09-23T08:58:24.005Z,101392.53
2022-09-23T09:01:21.950Z,101387.22
2022-09-23T09:04:00.957Z,101381.44
2022-09-23T09:06:52.512Z,101379.59
2022-09-23T09:09:23.751Z,101381.25
2022-09-23T09:11:58.121Z,101376.53
2022-09-23T09:14:57.287Z,101374.75
2022-09-23T09:17:38.355Z,101384.56
2022-09-23T09:20:38.123Z,101370.78
2022-09-23T09:23:40.596Z,101370.44
2022-09-23T09:26:15.705Z,101371.50
2022-09-23T09:28:48.897Z,101366.91
2022-09-23T09:31:37.986Z,101356.72
2022-09-23T09:34:12.061Z,101358.84
2022-09-23T09:36:48.312Z,101360.84
2022-09-23T09:39:15.716Z,101357.41
2022-09-23T09:41:47.443Z,101361.13
2022-09-23T09:44:31.656Z,101361.47
2022-09-23T09:47:23.977Z,101356.94
2022-09-23T09:49:59.205Z,101357.63
2022-09-23T09:52:29.561Z,101353.47
2022-09-23T09:55:13.778Z,101356.28
2022-09-23T09:57:44.100Z,101345.47
2022-09-23T10:00:26.427Z,101351.31
2022-09-23T10:03:14.722Z,101346.94
2022-09-23T10:05:44.981Z,101341.75
2022-09-23T10:09:02.086Z,101341.19
2022-09-23T10:11:30.064Z,101341.81
2022-09-23T10:14:02.428Z,101341.25
2022-09-23T10:16:31.839Z,101341.69
2022-09-23T10:19:00.806Z,101343.72
2022-09-23T10:21:36.339Z,101335.91
2022-09-23T10:24:06.608Z,101337.25
2022-09-23T10:26:43.256Z,101346.56
2022-09-23T10:29:31.347Z,101336.28
2022-09-23T10:32:37.339Z,101341.59
2022-09-23T10:35:10.655Z,101334.16
2022-09-23T10:37:52.873Z,101335.00
2022-09-23T10:44:13.086Z,101334.44
2022-09-23T10:47:17.963Z,101326.00
2022-09-23T10:49:58.802Z,101329.66
2022-09-23T10:52:43.483Z,101325.84
2022-09-23T10:55:09.982Z,101327.91
2022-09-23T10:58:04.374Z,101326.72
2022-09-23T11:00:43.214Z,101325.13
2022-09-23T11:03:34.924Z,101326.00
2022-09-23T11:06:13.657Z,101325.41
2022-09-23T11:08:53.471Z,101319.34
2022-09-23T11:11:29.803Z,101317.31
2022-09-23T11:14:41.205Z,101324.22
2022-09-23T11:17:14.969Z,101322.78
2022-09-23T11:20:03.447Z,101307.47
2022-09-23T11:22:57.367Z,101311.31
2022-09-23T11:25:36.257Z,101310.91
2022-09-23T11:28:17.809Z,101301.38
2022-09-23T11:30:56.098Z,101299.41
2022-09-23T11:33:28.778Z,101298.56
2022-09-23T11:36:12.609Z,101296.16
2022-09-23T11:38:45.840Z,101291.09
2022-09-23T11:41:17.957Z,101287.44
2022-09-23T11:43:53.676Z,101285.63
2022-09-23T11:46:27.539Z,101288.03
2022-09-23T11:49:05.018Z,101286.22
2022-09-23T11:51:44.911Z,101280.38
2022-09-23T11:54:22.809Z,101279.56
2022-09-23T11:56:57.036Z,101277.16
2022-09-23T11:59:38.424Z,101279.16
2022-09-23T12:02:20.730Z,101275.50
2022-09-23T12:05:12.863Z,101272.69
2022-09-23T12:08:02.882Z,101275.31
2022-09-23T12:10:51.711Z,101272.88
2022-09-23T12:13:35.316Z,101269.84
2022-09-23T12:16:25.989Z,101275.13
2022-09-23T12:19:19.061Z,101275.28
2022-09-23T12:22:00.835Z,101266.41
2022-09-23T12:24:41.022Z,101271.44
2022-09-23T12:27:12.192Z,101263.38
2022-09-23T12:29:41.407Z,101267.38
2022-09-23T12:32:16.804Z,101272.03
2022-09-23T12:34:49.203Z,101269.41
2022-09-23T12:37:43.341Z,101258.88
2022-09-23T12:40:27.595Z,101263.94
2022-09-23T12:42:54.686Z,101256.44
2022-09-23T12:45:32.495Z,101256.84
2022-09-23T12:48:01.050Z,101251.75
2022-09-23T12:50:50.827Z,101255.34
2022-09-23T12:53:35.806Z,101252.91
2022-09-23T12:56:18.745Z,101252.28
2022-09-23T12:58:48.332Z,101248.03
2022-09-23T13:01:17.182Z,101249.47
2022-09-23T13:04:11.510Z,101247.88
2022-09-23T13:06:40.566Z,101244.66
2022-09-23T13:09:22.592Z,101233.94
2022-09-23T13:11:50.367Z,101246.28
2022-09-23T13:14:26.778Z,101242.47
2022-09-23T13:16:57.185Z,101238.22
2022-09-23T13:19:27.023Z,101234.56
2022-09-23T13:21:53.629Z,101236.97
2022-09-23T13:24:22.953Z,101226.88
2022-09-23T13:26:57.302Z,101229.66
2022-09-23T13:29:28.038Z,101216.47
2022-09-23T13:31:58.078Z,101204.53
2022-09-23T13:34:30.549Z,101221.09
2022-09-23T13:36:57.342Z,101209.13
2022-09-23T13:39:26.511Z,101204.22
2022-09-23T13:41:58.946Z,101215.38
2022-09-23T13:44:25.575Z,101216.31
2022-09-23T13:46:58.095Z,101213.06
2022-09-23T13:49:34.051Z,101208.38
2022-09-23T13:52:02.621Z,101197.88
2022-09-23T13:54:48.809Z,101196.69
2022-09-23T13:57:33.998Z,101197.50
2022-09-23T14:00:02.317Z,101191.19
2022-09-23T14:02:29.012Z,101194.88
2022-09-23T14:04:58.978Z,101184.53
2022-09-23T14:07:26.061Z,101190.25
2022-09-23T14:09:55.731Z,101198.19
2022-09-23T14:12:22.750Z,101188.28
2022-09-23T14:14:52.798Z,101186.25
2022-09-23T14:17:23.025Z,101190.94
2022-09-23T14:19:50.470Z,101176.19
2022-09-23T14:22:25.681Z,101182.69
2022-09-23T14:24:53.965Z,101188.16
2022-09-23T14:27:40.481Z,101179.50
2022-09-23T14:30:19.086Z,101174.06
2022-09-23T14:32:47.921Z,101175.28
2022-09-23T14:35:42.794Z,101178.56
2022-09-23T14:38:27.956Z,101171.88
2022-09-23T14:41:15.772Z,101178.16
2022-09-23T14:43:59.191Z,101170.31
2022-09-23T14:46:28.975Z,101168.72
2022-09-23T14:49:01.076Z,101173.97
2022-09-23T14:52:00.526Z,101175.78
2022-09-23T14:54:40.557Z,101178.63
2022-09-23T14:57:25.419Z,101166.25
2022-09-23T15:00:14.206Z,101166.88
2022-09-23T15:02:45.561Z,101165.63
2022-09-23T15:05:15.651Z,101162.81
2022-09-23T15:07:46.387Z,101155.94
2022-09-23T15:10:31.827Z,101161.78
2022-09-23T15:13:17.040Z,101159.59
2022-09-23T15:15:44.295Z,101152.94
2022-09-23T15:18:22.785Z,101156.56
2022-09-23T15:20:55.360Z,101147.88
2022-09-23T15:23:43.223Z,101151.31
2022-09-23T15:26:15.968Z,101147.69
2022-09-23T15:28:43.844Z,101138.16
2022-09-23T15:31:18.797Z,101139.97
2022-09-23T15:33:47.764Z,101137.78
2022-09-23T15:36:23.020Z,101131.94
2022-09-23T15:38:49.786Z,101137.63
2022-09-23T15:41:17.372Z,101138.84
2022-09-23T15:43:44.623Z,101139.25
2022-09-23T15:46:19.356Z,101136.03
2022-09-23T15:49:08.991Z,101131.19
2022-09-23T15:51:37.386Z,101130.81
2022-09-23T15:54:05.991Z,101139.06
2022-09-23T15:56:33.462Z,101142.13
2022-09-23T15:59:00.915Z,101134.66
2022-09-23T16:01:30.650Z,101131.63
2022-09-23T16:03:57.590Z,101134.47
2022-09-23T16:06:24.409Z,101137.50
2022-09-23T16:08:52.255Z,101136.91
2022-09-23T16:11:24.927Z,101136.53
2022-09-23T16:13:51.867Z,101137.97
2022-09-23T16:16:22.276Z,101133.13
2022-09-23T16:18:51.307Z,101136.16
2022-09-23T16:21:21.366Z,101129.91
2022-09-23T16:23:49.977Z,101125.06
2022-09-23T16:26:20.852Z,101130.72
2022-09-23T16:28:50.510Z,101126.69
2022-09-23T16:31:17.520Z,101127.91
2022-09-23T16:33:45.232Z,101127.31
2022-09-23T16:36:21.173Z,101129.56
2022-09-23T16:38:48.201Z,101129.13
2022-09-23T16:41:14.889Z,101126.34
2022-09-23T16:43:41.996Z,101121.50
2022-09-23T16:46:12.199Z,101125.34
2022-09-23T16:48:44.988Z,101116.25
2022-09-23T16:51:20.518Z,101125.34
2022-09-23T16:53:51.480Z,101124.75
2022-09-23T16:56:25.731Z,101130.41
2022-09-23T16:58:54.887Z,101120.31
2022-09-23T17:01:42.491Z,101122.75
2022-09-23T17:04:10.737Z,101127.59
2022-09-23T17:06:43.662Z,101130.56
2022-09-23T17:09:11.538Z,101127.56
2022-09-23T17:11:38.209Z,101128.16
2022-09-23T17:14:05.851Z,101130.97
2022-09-23T17:16:34.363Z,101124.94
2022-09-23T17:19:07.174Z,101121.50
2022-09-23T17:21:34.312Z,101130.97
2022-09-23T17:24:01.420Z,101129.34
2022-09-23T17:26:28.418Z,101123.13
2022-09-23T17:28:57.368Z,101125.31
2022-09-23T17:31:25.249Z,101125.31
2022-09-23T17:33:52.722Z,101124.88
2022-09-23T17:36:20.549Z,101122.84
2022-09-23T17:38:48.461Z,101127.91
2022-09-23T17:41:18.139Z,101128.50
2022-09-23T17:43:46.786Z,101124.25
2022-09-23T17:46:18.663Z,101124.84
2022-09-23T17:48:45.578Z,101118.19
2022-09-23T17:51:18.864Z,101127.47
2022-09-23T17:53:47.843Z,101125.59
2022-09-23T17:56:20.494Z,101120.94
2022-09-23T17:58:48.880Z,101121.50
2022-09-23T18:01:24.178Z,101126.34
2022-09-23T18:03:55.130Z,101113.63
2022-09-23T18:06:23.255Z,101118.66
2022-09-23T18:08:50.969Z,101116.44
2022-09-23T18:11:21.901Z,101108.16
2022-09-23T18:13:53.537Z,101118.22
2022-09-23T18:16:23.673Z,101113.38
2022-09-23T18:18:55.430Z,101116.78
2022-09-23T18:21:24.233Z,101106.91
2022-09-23T18:23:51.147Z,101107.28
2022-09-23T18:26:23.126Z,101116.16
2022-09-23T18:28:52.863Z,101115.13
2022-09-23T18:31:20.389Z,101117.13
2022-09-23T18:33:51.560Z,101114.88
2022-09-23T18:36:19.713Z,101112.03
2022-09-23T18:38:47.024Z,101109.41
2022-09-23T18:41:14.008Z,101111.41
2022-09-23T18:43:45.110Z,101104.16
2022-09-23T18:46:16.909Z,101111.59
2022-09-23T18:49:03.310Z,101113.59
2022-09-23T18:51:32.154Z,101104.31
2022-09-23T18:54:00.780Z,101111.34
2022-09-23T18:56:39.618Z,101117.97
2022-09-23T18:59:07.395Z,101113.13
2022-09-23T19:01:34.530Z,101120.34
2022-09-23T19:04:04.597Z,101118.94
2022-09-23T19:06:37.533Z,101126.16
2022-09-23T19:09:06.024Z,101124.53
2022-09-23T19:11:36.210Z,101129.75
2022-09-23T19:14:05.993Z,101120.50
2022-09-23T19:16:33.298Z,101120.69
2022-09-23T19:19:00.663Z,101123.09
2022-09-23T19:21:29.153Z,101117.25
2022-09-23T19:23:59.094Z,101123.31
2022-09-23T19:26:32.101Z,101119.09
2022-09-23T19:29:00.556Z,101120.28
2022-09-23T19:31:30.069Z,101118.84
2022-09-23T19:34:13.930Z,101114.81
2022-09-23T19:36:43.134Z,101113.38
2022-09-23T19:39:18.557Z,101129.06
2022-09-23T19:41:46.284Z,101123.38
2022-09-23T19:44:13.155Z,101126.22
2022-09-23T19:46:42.884Z,101114.94
2022-09-23T19:49:11.090Z,101112.31
2022-09-23T19:51:38.946Z,101109.28
2022-09-23T19:54:07.395Z,101113.88
2022-09-23T19:56:35.926Z,101119.09
2022-09-23T19:59:05.945Z,101116.66
2022-09-23T20:01:33.183Z,101120.44
2022-09-23T20:04:00.313Z,101113.19
2022-09-23T20:06:31.612Z,101117.78
2022-09-23T20:09:01.051Z,101102.91
2022-09-23T20:11:29.062Z,101115.00
2022-09-23T20:14:01.810Z,101115.00
2022-09-23T20:16:32.347Z,101105.53
2022-09-23T20:19:00.244Z,101104.91
2022-09-23T20:21:28.347Z,101103.13
2022-09-23T20:23:55.561Z,101110.34
2022-09-23T20:26:41.070Z,101107.72
2022-09-23T20:29:08.955Z,101109.69
2022-09-23T20:31:36.004Z,101110.09
2022-09-23T20:34:05.772Z,101112.72
2022-09-23T20:36:34.061Z,101111.28
2022-09-23T20:39:05.386Z,101110.47
2022-09-23T20:41:35.901Z,101113.06
2022-09-23T20:44:02.968Z,101105.22
2022-09-23T20:46:30.270Z,101113.06
2022-09-23T20:48:57.077Z,101105.59
2022-09-23T20:51:24.810Z,101100.56
2022-09-23T20:53:53.046Z,101100.78
2022-09-23T20:56:23.480Z,101096.72
2022-09-23T20:58:52.566Z,101096.53
2022-09-23T21:01:19.865Z,101096.72
2022-09-23T21:03:48.606Z,101093.28
2022-09-23T21:06:17.349Z,101089.69
2022-09-23T21:08:44.721Z,101092.31
2022-09-23T21:11:14.899Z,101093.09
2022-09-23T21:13:46.824Z,101083.66
2022-09-23T21:16:15.323Z,101081.03
2022-09-23T21:18:42.014Z,101080.59
2022-09-23T21:21:10.496Z,101081.00
2022-09-23T21:23:39.090Z,101075.78
2022-09-23T21:26:07.292Z,101069.94
2022-09-23T21:28:36.234Z,101073.31
2022-09-23T21:31:05.981Z,101076.13
2022-09-23T21:33:33.079Z,101071.88
2022-09-23T21:36:03.522Z,101068.84
2022-09-23T21:38:37.212Z,101069.84
2022-09-23T21:41:06.936Z,101069.22
2022-09-23T21:43:36.006Z,101069.41
2022-09-23T21:46:08.020Z,101063.38
2022-09-23T21:48:37.618Z,101069.16
2022-09-23T21:51:07.280Z,101069.16
2022-09-23T21:53:36.406Z,101070.19
2022-09-23T21:56:08.625Z,101063.69
2022-09-23T21:58:37.379Z,101063.88
2022-09-23T22:01:15.653Z,101063.06
2022-09-23T22:03:43.518Z,101065.69
2022-09-23T22:06:11.865Z,101062.47
2022-09-23T22:08:40.947Z,101064.88
2022-09-23T22:11:33.502Z,101063.28
2022-09-23T22:14:02.157Z,101062.47
2022-09-23T22:16:29.426Z,101057.44
2022-09-23T22:18:58.292Z,101065.25
2022-09-23T22:21:26.720Z,101060.81
2022-09-23T22:23:58.474Z,101064.66
2022-09-23T22:26:25.457Z,101063.84
2022-09-23T22:29:10.640Z,101068.25
2022-09-23T22:31:55.989Z,101059.59
2022-09-23T22:34:49.193Z,101062.19
2022-09-23T22:37:25.586Z,101051.94
2022-09-23T22:39:52.925Z,101061.78
2022-09-23T22:42:22.448Z,101061.16
2022-09-23T22:44:50.238Z,101052.50
2022-09-23T22:47:20.143Z,101046.47
2022-09-23T22:49:47.535Z,101056.91
2022-09-23T22:52:16.168Z,101047.47
2022-09-23T22:54:43.066Z,101045.84
2022-09-23T22:57:10.527Z,101053.06
2022-09-23T22:59:37.530Z,101044.22
2022-09-23T23:02:06.659Z,101038.22
2022-09-23T23:04:33.564Z,101041.59
2022-09-23T23:07:00.180Z,101040.00
2022-09-23T23:09:26.689Z,101038.56
2022-09-23T23:11:53.261Z,101031.72
2022-09-23T23:14:20.015Z,101045.78
2022-09-23T23:16:47.027Z,101037.97
2022-09-23T23:19:17.168Z,101033.56
2022-09-23T23:21:45.257Z,101031.91
2022-09-23T23:24:20.582Z,101032.91
2022-09-23T23:26:47.445Z,101034.72
2022-09-23T23:29:15.944Z,101024.28
2022-09-23T23:31:42.918Z,101025.28
2022-09-23T23:34:20.976Z,101021.69
2022-09-23T23:36:54.699Z,101028.69
2022-09-23T23:39:23.773Z,101024.28
2022-09-23T23:41:57.023Z,101027.88
2022-09-23T23:44:25.515Z,101028.88
2022-09-23T23:46:52.588Z,101027.06
2022-09-23T23:49:19.548Z,101026.63
2022-09-23T23:51:46.474Z,101028.25
2022-09-23T23:54:13.040Z,101035.47
2022-09-23T23:56:39.696Z,101023.03
2022-09-23T23:59:06.432Z,101026.63
